createdAt,value
2022-12-15T00:03:31.346Z,99511.69
2022-12-15T00:13:52.530Z,99520.34
2022-12-15T00:24:14.393Z,99529.00
2022-12-15T00:34:34.664Z,99535.87
2022-12-15T00:44:39.166Z,99545.25
2022-12-15T00:54:59.791Z,99535.84
2022-12-15T01:05:21.836Z,99541.13
2022-12-15T01:15:42.109Z,99548.97
2022-12-15T01:25:46.538Z,99547.25
2022-12-15T01:35:59.541Z,99548.97
2022-12-15T01:46:06.615Z,99565.22
2022-12-15T01:56:10.007Z,99548.06
2022-12-15T02:06:15.041Z,99563.44
2022-12-15T02:16:26.110Z,99543.63
2022-12-15T02:27:14.644Z,99546.28
2022-12-15T02:37:22.566Z,99542.91
2022-12-15T02:47:32.756Z,99554.81
2022-12-15T02:57:40.915Z,99558.28
2022-12-15T03:07:45.016Z,99555.69
2022-12-15T03:17:54.374Z,99567.84
2022-12-15T03:27:57.545Z,99577.25
2022-12-15T03:38:02.041Z,99594.53
2022-12-15T03:48:05.433Z,99586.88
2022-12-15T03:58:09.901Z,99597.94
2022-12-15T04:08:12.997Z,99613.31
2022-12-15T04:18:17.759Z,99620.97
2022-12-15T04:28:38.420Z,99639.62
2022-12-15T04:39:00.592Z,99628.44
2022-12-15T04:49:21.212Z,99626.63
2022-12-15T04:59:43.060Z,99628.37
2022-12-15T05:10:04.305Z,99668.13
2022-12-15T05:20:28.378Z,99696.03
2022-12-15T05:30:48.866Z,99704.81
2022-12-15T05:40:53.447Z,99701.38
2022-12-15T05:50:56.576Z,99735.38
2022-12-15T06:01:05.966Z,99744.41
2022-12-15T06:11:10.518Z,99755.59
2022-12-15T06:21:17.920Z,99787.47
2022-12-15T06:31:22.898Z,99821.22
2022-12-15T06:41:28.027Z,99835.97
2022-12-15T06:51:31.162Z,99843.19
2022-12-15T07:01:36.064Z,99827.06
2022-12-15T07:11:40.482Z,99844.25
2022-12-15T07:21:45.168Z,99864.94
2022-12-15T07:31:48.254Z,99869.31
2022-12-15T07:41:52.758Z,99898.28
2022-12-15T07:51:58.573Z,99875.53
2022-12-15T08:02:04.391Z,99926.56
2022-12-15T08:12:08.168Z,99905.78
2022-12-15T08:22:12.932Z,99938.94
2022-12-15T08:32:16.075Z,99958.09
2022-12-15T08:42:20.635Z,99963.37
2022-12-15T08:52:24.213Z,99964.19
2022-12-15T09:02:28.709Z,99978.97
2022-12-15T09:12:32.111Z,99991.34
2022-12-15T09:22:37.430Z,100011.97
2022-12-15T09:32:40.618Z,100012.72
2022-12-15T09:42:46.336Z,99998.25
2022-12-15T09:52:51.673Z,99988.69
2022-12-15T10:03:24.454Z,99990.03
2022-12-15T10:13:35.137Z,99977.19
2022-12-15T10:23:39.813Z,99979.03
2022-12-15T10:33:48.575Z,99959.91
2022-12-15T10:44:30.300Z,99953.94
2022-12-15T10:54:37.236Z,99961.91
2022-12-15T11:04:41.761Z,99962.66
2022-12-15T11:14:46.400Z,99963.69
2022-12-15T11:24:55.386Z,99965.28
2022-12-15T11:34:58.566Z,99955.19
2022-12-15T11:45:04.907Z,99968.88
2022-12-15T11:55:17.663Z,99981.91
2022-12-15T12:05:39.262Z,99984.53
2022-12-15T12:15:50.554Z,99994.97
2022-12-15T12:26:02.757Z,99983.69
2022-12-15T12:36:09.845Z,99981.97
2022-12-15T12:46:17.527Z,99984.53
2022-12-15T12:56:40.135Z,99969.97
2022-12-15T13:07:07.788Z,99973.00
2022-12-15T13:17:27.698Z,99986.69
2022-12-15T13:27:38.170Z,100000.44
2022-12-15T13:37:46.850Z,99992.38
2022-12-15T13:47:55.778Z,100007.28
2022-12-15T13:58:01.974Z,100009.03
2022-12-15T14:08:11.267Z,100010.72
2022-12-15T14:18:25.852Z,100017.53
2022-12-15T14:28:32.777Z,100024.25
2022-12-15T14:38:47.486Z,100027.63
2022-12-15T14:48:57.324Z,100024.84
2022-12-15T14:59:04.290Z,100017.75
2022-12-15T15:09:20.750Z,100029.06
2022-12-15T15:19:23.910Z,100033.41
2022-12-15T15:29:39.466Z,100029.69
2022-12-15T15:39:42.907Z,100046.06
2022-12-15T15:49:47.927Z,100039.12
2022-12-15T15:59:51.194Z,100016.66
2022-12-15T16:09:56.043Z,100009.56
2022-12-15T16:19:59.957Z,100012.06
2022-12-15T16:30:10.817Z,100019.87
2022-12-15T16:40:18.995Z,100025.91
2022-12-15T16:50:26.725Z,100028.47
2022-12-15T17:00:31.509Z,100034.56
2022-12-15T17:10:36.251Z,100031.09
2022-12-15T17:20:39.313Z,100052.66
2022-12-15T17:30:43.826Z,100068.00
2022-12-15T17:40:48.086Z,100055.13
2022-12-15T17:50:54.485Z,100065.62
2022-12-15T18:00:57.987Z,100069.12
2022-12-15T18:11:02.442Z,100056.94
2022-12-15T18:21:13.689Z,100049.88
2022-12-15T18:31:21.531Z,100037.81
2022-12-15T18:41:24.681Z,100034.56
2022-12-15T18:51:30.886Z,100043.03
2022-12-15T19:01:34.377Z,100049.09
2022-12-15T19:11:39.680Z,100052.66
2022-12-15T19:21:56.997Z,100056.97
2022-12-15T19:32:01.906Z,100037.81
2022-12-15T19:42:08.787Z,100042.44
2022-12-15T19:52:17.664Z,100035.12
2022-12-15T20:02:21.963Z,100036.03
2022-12-15T20:12:27.371Z,100026.41
2022-12-15T20:22:30.875Z,99998.12
2022-12-15T20:32:38.486Z,99985.25
2022-12-15T20:42:41.734Z,99949.59
2022-12-15T20:52:46.248Z,99928.72
2022-12-15T21:02:49.933Z,99955.66
2022-12-15T21:12:56.419Z,99939.34
2022-12-15T21:22:59.615Z,99945.47
2022-12-15T21:33:04.287Z,99924.75
2022-12-15T21:43:07.569Z,99914.50
2022-12-15T21:53:16.847Z,99903.28
2022-12-15T22:03:19.995Z,99893.81
2022-12-15T22:13:24.793Z,99894.87
2022-12-15T22:23:27.880Z,99884.44
2022-12-15T22:33:32.318Z,99875.00
2022-12-15T22:43:38.511Z,99852.56
2022-12-15T22:53:43.276Z,99847.41
2022-12-15T23:03:46.520Z,99825.63
2022-12-15T23:13:51.011Z,99819.72
2022-12-15T23:23:55.057Z,99819.84
2022-12-15T23:33:59.501Z,99807.91
2022-12-15T23:44:02.609Z,99802.44
2022-12-15T23:54:07.729Z,99777.28
